Airfield :
LOGIN :

Register | Disclaimer

   EN    FR    IT 

 










Legend :    VFR   Marginal VFR   IFR   Intensive IFR   Very Intensive IFR
Visi :
Ceiling :
>= 8 km
>= 3000ft
5 to 8 km
1000 to 3000 ft
1500m to 5 km
500 to 1000 ft
800 to 1500m
200 to 500 ft
< 800m
< 200 ft
Symbols :   Thunderstorms  Fog  Heavy snow  Heavy precipitations  Wind > 20 kt
SIGMETs :     Misc.  Thunderstorms  Icing  Turbulence  Mountain Waves  Volcanic Ashes






- Airport Elevation : 154 ft
- IATA code : PKV


ULOO - Pskov

CURRENT METAR :
  • 141330Z 17004MPS 140V200 P5000 BKN021 11/06 Q1014 R19/190055 NOSIG RMK QFE756

EXPIRED METARs :
  • 141230Z 16005MPS 130V190 P5000 OVC019 11/06 Q1014 R19/190055 NOSIG RMK QFE756
  • 141200Z 18004MPS 150V210 P5000 BKN019 11/06 Q1013 R19/190055 NOSIG RMK QFE756
  • 141130Z 17006MPS P5000 SCT019 11/06 Q1013 R19/190055 NOSIG RMK QFE756
  • 141100Z 17005MPS P5000 FEW020 11/06 Q1013 R19/190055 NOSIG RMK QFE755

TAF TAF ULOO
Valid from the 14 at 12:00 until the 14 at 21:00 UTC


141057Z 1412/1421 17006G12MPS 6000 SCT011 SCT020
TEMPO 1412/1421 3100 -SHRA BR BKN011 BKN015CB
BECMG 1418/1420 22003MPS



MET'MAP, your aeronautical weather chart ! - Copyright ORBIFLY December 2007 - Disclaimer

ORBIFLY MET'MAP TEAM :

Programming & Development : Alexandra Zaïnal
Concept & Development : Baudouin d'Aumeries
Co-Development & Prog : Marc-Olivier Méhu
Technical & hardware support : Manuel Goepfert

Contact : metmap@orbifly.com




SOURCES & CREDITS :

   NOAA